createdAt,value
2023-10-23T00:00:14.357Z,100225.42
2023-10-23T00:03:06.748Z,100225.27
2023-10-23T00:05:38.829Z,100225.37
2023-10-23T00:08:11.175Z,100226.83
2023-10-23T00:10:43.570Z,100224.48
2023-10-23T00:13:15.367Z,100231.77
2023-10-23T00:15:47.151Z,100239.27
2023-10-23T00:18:19.049Z,100244.13
2023-10-23T00:20:51.271Z,100245.65
2023-10-23T00:23:23.058Z,100247.67
2023-10-23T00:25:55.118Z,100246.63
2023-10-23T00:28:26.859Z,100245.01
2023-10-23T00:30:59.179Z,100246.50
2023-10-23T00:33:31.387Z,100244.30
2023-10-23T00:36:03.323Z,100243.15
2023-10-23T00:38:35.726Z,100245.70
2023-10-23T00:41:07.597Z,100244.95
2023-10-23T00:43:40.817Z,100241.61
2023-10-23T00:46:16.013Z,100236.77
2023-10-23T00:48:49.824Z,100234.04
2023-10-23T00:51:21.813Z,100234.12
2023-10-23T00:53:54.997Z,100238.71
2023-10-23T00:56:27.280Z,100240.25
2023-10-23T00:58:59.635Z,100241.17
2023-10-23T01:01:33.731Z,100245.73
2023-10-23T01:04:06.673Z,100241.46
2023-10-23T01:06:37.136Z,100246.05
2023-10-23T01:09:09.987Z,100248.89
2023-10-23T01:11:40.231Z,100248.90
2023-10-23T01:14:12.305Z,100244.44
2023-10-23T01:16:44.128Z,100246.02
2023-10-23T01:19:16.055Z,100244.94
2023-10-23T01:21:48.942Z,100250.25
2023-10-23T01:24:23.973Z,100251.63
2023-10-23T01:26:56.912Z,100250.45
2023-10-23T01:29:28.680Z,100246.22
2023-10-23T01:32:00.496Z,100244.50
2023-10-23T01:34:32.720Z,100238.89
2023-10-23T01:37:04.633Z,100240.08
2023-10-23T01:39:36.465Z,100244.35
2023-10-23T01:42:09.285Z,100241.86
2023-10-23T01:44:41.147Z,100237.79
2023-10-23T01:47:13.077Z,100240.58
2023-10-23T01:49:44.885Z,100240.30
2023-10-23T01:52:16.964Z,100240.21
2023-10-23T01:54:51.941Z,100237.49
2023-10-23T01:57:24.183Z,100235.59
2023-10-23T02:00:04.494Z,100239.41
2023-10-23T02:02:44.282Z,100237.75
2023-10-23T02:05:16.399Z,100236.31
2023-10-23T02:07:48.175Z,100232.38
2023-10-23T02:10:22.203Z,100236.27
2023-10-23T02:12:54.779Z,100239.67
2023-10-23T02:15:27.062Z,100239.27
2023-10-23T02:17:59.326Z,100236.54
2023-10-23T02:20:31.296Z,100235.36
2023-10-23T02:23:03.149Z,100236.02
2023-10-23T02:25:34.979Z,100238.62
2023-10-23T02:28:07.214Z,100241.12
2023-10-23T02:30:40.303Z,100246.09
2023-10-23T02:33:12.164Z,100240.73
2023-10-23T02:35:44.567Z,100246.88
2023-10-23T02:38:16.545Z,100244.14
2023-10-23T02:40:55.487Z,100244.77
2023-10-23T02:43:27.669Z,100251.69
2023-10-23T02:46:03.776Z,100253.73
2023-10-23T02:48:35.893Z,100258.02
2023-10-23T02:51:07.796Z,100265.27
2023-10-23T02:53:40.212Z,100268.41
2023-10-23T02:56:15.112Z,100269.76
2023-10-23T02:58:46.960Z,100280.41
2023-10-23T03:01:21.599Z,100279.76
2023-10-23T03:03:54.213Z,100283.35
2023-10-23T03:06:26.190Z,100289.62
2023-10-23T03:08:58.769Z,100291.45
2023-10-23T03:11:32.248Z,100292.18
2023-10-23T03:14:04.993Z,100290.75
2023-10-23T03:16:37.697Z,100292.61
2023-10-23T03:19:09.455Z,100292.02
2023-10-23T03:21:41.237Z,100290.75
2023-10-23T03:24:12.541Z,100294.33
2023-10-23T03:26:44.841Z,100290.05
2023-10-23T03:29:17.870Z,100288.92
2023-10-23T03:31:49.777Z,100295.82
2023-10-23T03:34:21.695Z,100301.80
2023-10-23T03:36:54.105Z,100303.93
2023-10-23T03:39:26.008Z,100302.42
2023-10-23T03:41:57.889Z,100302.70
2023-10-23T03:44:29.819Z,100304.29
2023-10-23T03:47:01.692Z,100305.80
2023-10-23T03:49:33.703Z,100313.48
2023-10-23T03:52:05.855Z,100318.16
2023-10-23T03:54:38.390Z,100318.05
2023-10-23T03:57:10.216Z,100318.83
2023-10-23T03:59:45.305Z,100323.36
2023-10-23T04:02:17.319Z,100321.77
2023-10-23T04:04:49.189Z,100320.45
2023-10-23T04:07:21.461Z,100320.56
2023-10-23T04:09:53.563Z,100316.79
2023-10-23T04:12:25.410Z,100314.80
2023-10-23T04:14:57.467Z,100319.47
2023-10-23T04:17:29.287Z,100320.74
2023-10-23T04:20:01.181Z,100319.08
2023-10-23T04:22:33.023Z,100317.80
2023-10-23T04:25:05.247Z,100313.22
2023-10-23T04:27:37.496Z,100316.12
2023-10-23T04:30:12.129Z,100319.97
2023-10-23T04:32:44.010Z,100318.91
2023-10-23T04:35:15.918Z,100321.23
2023-10-23T04:37:47.716Z,100320.30
2023-10-23T04:40:19.708Z,100333.46
2023-10-23T04:42:51.741Z,100334.45
2023-10-23T04:45:23.650Z,100334.20
2023-10-23T04:47:55.484Z,100327.47
2023-10-23T04:50:27.296Z,100323.45
2023-10-23T04:53:00.591Z,100328.62
2023-10-23T04:55:36.647Z,100326.41
2023-10-23T04:58:09.197Z,100334.53
2023-10-23T05:00:41.629Z,100335.11
2023-10-23T05:03:13.735Z,100333.93
2023-10-23T05:05:50.261Z,100343.20
2023-10-23T05:08:22.150Z,100345.78
2023-10-23T05:10:53.915Z,100347.77
2023-10-23T05:13:26.416Z,100346.65
2023-10-23T05:16:05.768Z,100352.95
2023-10-23T05:18:37.934Z,100355.34
2023-10-23T05:21:11.894Z,100356.60
2023-10-23T05:23:44.119Z,100352.78
2023-10-23T05:26:16.381Z,100362.58
2023-10-23T05:28:49.050Z,100370.60
2023-10-23T05:31:21.639Z,100373.06
2023-10-23T05:33:53.627Z,100373.92
2023-10-23T05:36:25.596Z,100375.84
2023-10-23T05:38:57.436Z,100376.02
2023-10-23T05:41:29.239Z,100380.91
2023-10-23T05:44:01.218Z,100385.20
2023-10-23T05:46:33.339Z,100385.97
2023-10-23T05:49:05.215Z,100388.70
2023-10-23T05:51:37.667Z,100391.29
2023-10-23T05:54:10.871Z,100391.18
2023-10-23T05:56:42.844Z,100391.08
2023-10-23T05:59:14.847Z,100391.90
2023-10-23T06:01:46.766Z,100388.66
2023-10-23T06:04:18.763Z,100389.02
2023-10-23T06:06:50.878Z,100394.61
2023-10-23T06:09:22.813Z,100395.23
2023-10-23T06:11:54.733Z,100394.79
2023-10-23T06:14:26.549Z,100398.45
2023-10-23T06:16:58.786Z,100394.05
2023-10-23T06:19:32.702Z,100401.75
2023-10-23T06:22:04.763Z,100404.86
2023-10-23T06:24:37.042Z,100406.77
2023-10-23T06:27:08.937Z,100409.46
2023-10-23T06:29:40.832Z,100408.50
2023-10-23T06:32:14.467Z,100410.21
2023-10-23T06:34:46.662Z,100409.73
2023-10-23T06:37:18.511Z,100409.25
2023-10-23T06:39:50.522Z,100410.85
2023-10-23T06:42:22.278Z,100414.56
2023-10-23T06:44:54.832Z,100418.56
2023-10-23T06:47:26.804Z,100421.48
2023-10-23T06:49:59.966Z,100428.73
2023-10-23T06:52:31.863Z,100430.44
2023-10-23T06:55:04.267Z,100440.73
2023-10-23T06:57:36.302Z,100439.48
2023-10-23T07:00:11.235Z,100438.59
2023-10-23T07:02:43.225Z,100438.36
2023-10-23T07:05:15.367Z,100437.13
2023-10-23T07:07:47.233Z,100438.59
2023-10-23T07:10:19.201Z,100446.36
2023-10-23T07:12:51.081Z,100446.64
2023-10-23T07:15:22.944Z,100448.25
2023-10-23T07:17:55.294Z,100449.61
2023-10-23T07:20:27.812Z,100454.23
2023-10-23T07:23:00.442Z,100454.66
2023-10-23T07:25:32.455Z,100459.57
2023-10-23T07:28:04.218Z,100462.16
2023-10-23T07:30:37.029Z,100463.28
2023-10-23T07:33:08.937Z,100462.05
2023-10-23T07:35:52.518Z,100463.51
2023-10-23T07:38:25.285Z,100461.13
2023-10-23T07:40:57.201Z,100463.27
2023-10-23T07:43:29.660Z,100464.00
2023-10-23T07:46:15.722Z,100464.96
2023-10-23T07:48:49.158Z,100460.27
2023-10-23T07:51:21.115Z,100463.47
2023-10-23T07:53:53.020Z,100467.45
2023-10-23T07:56:25.420Z,100466.34
2023-10-23T07:58:58.070Z,100464.29
2023-10-23T08:01:28.658Z,100462.70
2023-10-23T08:04:00.655Z,100461.13
2023-10-23T08:06:32.872Z,100460.64
2023-10-23T08:09:05.604Z,100461.55
2023-10-23T08:11:37.657Z,100466.00
2023-10-23T08:14:09.584Z,100470.41
2023-10-23T08:16:41.558Z,100471.92
2023-10-23T08:19:14.149Z,100469.41
2023-10-23T08:21:46.237Z,100475.67
2023-10-23T08:24:18.358Z,100473.54
2023-10-23T08:26:51.430Z,100473.90
2023-10-23T08:29:23.305Z,100471.36
2023-10-23T08:31:55.486Z,100474.06
2023-10-23T08:34:27.629Z,100480.36
2023-10-23T08:36:59.706Z,100480.14
2023-10-23T08:39:31.772Z,100480.06
2023-10-23T08:42:03.002Z,100475.13
2023-10-23T08:44:35.036Z,100476.80
2023-10-23T08:47:07.642Z,100478.05
2023-10-23T08:49:39.812Z,100479.65
2023-10-23T08:52:13.792Z,100480.38
2023-10-23T08:54:48.171Z,100480.90
2023-10-23T08:57:22.021Z,100479.98
2023-10-23T08:59:53.924Z,100482.30
2023-10-23T09:02:26.569Z,100484.02
2023-10-23T09:04:58.831Z,100483.45
2023-10-23T09:07:31.007Z,100481.23
2023-10-23T09:10:05.054Z,100483.95
2023-10-23T09:12:40.625Z,100486.38
2023-10-23T09:15:21.816Z,100493.08
2023-10-23T09:17:54.726Z,100494.73
2023-10-23T09:20:28.789Z,100488.35
2023-10-23T09:23:01.846Z,100492.70
2023-10-23T09:25:33.794Z,100499.34
2023-10-23T09:28:13.721Z,100493.33
2023-10-23T09:30:46.640Z,100500.83
2023-10-23T09:33:18.669Z,100495.79
2023-10-23T09:35:51.405Z,100498.11
2023-10-23T09:38:24.237Z,100490.50
2023-10-23T09:40:58.259Z,100492.13
2023-10-23T09:43:30.321Z,100486.55
2023-10-23T09:46:04.442Z,100488.25
2023-10-23T09:48:39.462Z,100491.92
2023-10-23T09:51:16.380Z,100497.29
2023-10-23T09:53:51.346Z,100496.89
2023-10-23T09:56:24.801Z,100493.36
2023-10-23T09:59:02.304Z,100486.91
2023-10-23T10:01:42.044Z,100485.93
2023-10-23T10:04:23.859Z,100489.95
2023-10-23T10:07:01.218Z,100489.46
2023-10-23T10:09:34.352Z,100487.35
2023-10-23T10:12:08.424Z,100478.77
2023-10-23T10:14:42.921Z,100477.34
2023-10-23T10:17:17.052Z,100476.20
2023-10-23T10:19:49.418Z,100477.05
2023-10-23T10:22:29.806Z,100475.94
2023-10-23T10:25:02.036Z,100477.95
2023-10-23T10:27:34.840Z,100476.20
2023-10-23T10:30:29.928Z,100473.55
2023-10-23T10:34:25.405Z,100473.20
2023-10-23T10:36:00.527Z,100466.40
2023-10-23T10:38:33.814Z,100467.73
2023-10-23T10:41:07.320Z,100465.09
2023-10-23T10:43:40.588Z,100458.95
2023-10-23T10:46:21.301Z,100459.12
2023-10-23T10:48:56.391Z,100458.15
2023-10-23T10:51:30.426Z,100457.98
2023-10-23T10:54:04.875Z,100452.48
2023-10-23T10:56:38.046Z,100449.84
2023-10-23T10:59:09.944Z,100449.18
2023-10-23T11:01:42.524Z,100449.17
2023-10-23T11:04:14.960Z,100447.85
2023-10-23T11:06:47.938Z,100441.35
2023-10-23T11:09:25.370Z,100440.73
2023-10-23T11:12:00.817Z,100439.77
2023-10-23T11:14:33.671Z,100440.34
2023-10-23T11:17:07.180Z,100444.77
2023-10-23T11:19:39.771Z,100448.59
2023-10-23T11:22:14.405Z,100450.29
2023-10-23T11:24:47.341Z,100446.73
2023-10-23T11:27:17.866Z,100449.68
2023-10-23T11:29:51.186Z,100447.75
2023-10-23T11:32:23.765Z,100442.08
2023-10-23T11:34:54.265Z,100443.76
2023-10-23T11:37:26.830Z,100440.48
2023-10-23T11:40:00.212Z,100438.57
2023-10-23T11:42:33.328Z,100435.86
2023-10-23T11:45:05.652Z,100439.08
2023-10-23T11:47:39.363Z,100437.15
2023-10-23T11:50:14.071Z,100436.64
2023-10-23T11:52:47.831Z,100436.24
2023-10-23T11:55:22.447Z,100439.09
2023-10-23T11:57:55.927Z,100436.35
2023-10-23T12:00:29.230Z,100440.43
2023-10-23T12:03:01.304Z,100443.64
2023-10-23T12:05:33.740Z,100441.39
2023-10-23T12:08:06.497Z,100448.13
2023-10-23T12:10:39.654Z,100449.55
2023-10-23T12:13:11.692Z,100450.38
2023-10-23T12:15:44.212Z,100452.77
2023-10-23T12:18:16.180Z,100458.52
2023-10-23T12:20:48.737Z,100455.80
2023-10-23T12:23:21.255Z,100458.35
2023-10-23T12:25:54.053Z,100462.33
2023-10-23T12:28:27.317Z,100461.86
2023-10-23T12:31:00.099Z,100457.27
2023-10-23T12:33:38.242Z,100454.73
2023-10-23T12:36:11.388Z,100457.38
2023-10-23T12:38:43.232Z,100456.30
2023-10-23T12:41:15.668Z,100454.59
2023-10-23T12:43:48.428Z,100459.24
2023-10-23T12:46:21.289Z,100462.40
2023-10-23T12:48:53.608Z,100459.14
2023-10-23T12:51:27.644Z,100457.25
2023-10-23T12:53:59.526Z,100462.02
2023-10-23T12:56:32.964Z,100461.86
2023-10-23T12:59:06.154Z,100456.47
2023-10-23T13:01:38.146Z,100458.21
2023-10-23T13:04:10.359Z,100459.59
2023-10-23T13:06:42.452Z,100458.33
2023-10-23T13:09:16.833Z,100458.91
2023-10-23T13:11:49.238Z,100463.59
2023-10-23T13:14:21.150Z,100461.84
2023-10-23T13:16:53.685Z,100461.08
2023-10-23T13:19:24.536Z,100460.46
2023-10-23T13:21:56.913Z,100453.95
2023-10-23T13:24:28.746Z,100452.08
2023-10-23T13:27:01.126Z,100446.37
2023-10-23T13:29:33.684Z,100444.06
2023-10-23T13:32:05.983Z,100441.72
2023-10-23T13:34:38.077Z,100437.98
2023-10-23T13:37:09.275Z,100436.34
2023-10-23T13:39:41.275Z,100433.45
2023-10-23T13:42:13.141Z,100436.35
2023-10-23T13:44:45.028Z,100435.62
2023-10-23T13:47:18.569Z,100437.98
2023-10-23T13:49:50.374Z,100441.45
2023-10-23T13:52:22.466Z,100439.52
2023-10-23T13:54:54.415Z,100437.11
2023-10-23T13:57:26.391Z,100433.58
2023-10-23T13:59:58.231Z,100432.67
2023-10-23T14:02:30.189Z,100434.89
2023-10-23T14:05:02.136Z,100434.13
2023-10-23T14:07:34.135Z,100434.89
2023-10-23T14:10:07.256Z,100431.52
2023-10-23T14:12:39.214Z,100435.52
2023-10-23T14:15:12.426Z,100429.35
2023-10-23T14:17:44.293Z,100425.91
2023-10-23T14:20:16.795Z,100430.43
2023-10-23T14:22:48.608Z,100423.27
2023-10-23T14:25:20.824Z,100422.77
2023-10-23T14:27:52.745Z,100419.26
2023-10-23T14:30:24.767Z,100419.98
2023-10-23T14:32:57.144Z,100423.77
2023-10-23T14:35:32.344Z,100422.30
2023-10-23T14:38:05.125Z,100414.59
2023-10-23T14:40:37.051Z,100411.39
2023-10-23T14:43:09.040Z,100410.75
2023-10-23T14:45:41.633Z,100410.24
2023-10-23T14:48:13.456Z,100412.32
2023-10-23T14:50:45.287Z,100412.26
2023-10-23T14:53:17.132Z,100410.91
2023-10-23T14:55:49.009Z,100406.00
2023-10-23T14:58:21.328Z,100405.52
2023-10-23T15:00:53.214Z,100402.64
2023-10-23T15:03:25.538Z,100407.90
2023-10-23T15:05:57.332Z,100408.61
2023-10-23T15:08:29.180Z,100406.61
2023-10-23T15:11:01.052Z,100408.36
2023-10-23T15:13:33.130Z,100410.06
2023-10-23T15:16:05.835Z,100410.96
2023-10-23T15:18:36.758Z,100409.51
2023-10-23T15:21:09.604Z,100406.69
2023-10-23T15:23:42.149Z,100417.45
2023-10-23T15:26:14.101Z,100413.77
2023-10-23T15:28:45.905Z,100417.35
2023-10-23T15:31:20.491Z,100414.55
2023-10-23T15:33:52.617Z,100418.81
2023-10-23T15:36:24.545Z,100418.60
2023-10-23T15:38:56.621Z,100421.13
2023-10-23T15:41:28.730Z,100424.05
2023-10-23T15:44:00.831Z,100431.05
2023-10-23T15:46:32.791Z,100425.96
2023-10-23T15:49:04.720Z,100430.08
2023-10-23T15:51:36.868Z,100430.78
2023-10-23T15:54:09.176Z,100430.96
2023-10-23T15:56:43.681Z,100431.27
2023-10-23T15:59:15.695Z,100432.61
2023-10-23T16:01:47.649Z,100433.38
2023-10-23T16:04:19.646Z,100438.16
2023-10-23T16:06:51.676Z,100437.79
2023-10-23T16:09:27.382Z,100435.30
2023-10-23T16:12:09.968Z,100431.84
2023-10-23T16:14:55.724Z,100431.95
2023-10-23T16:17:29.286Z,100433.04
2023-10-23T16:20:01.097Z,100429.41
2023-10-23T16:22:33.357Z,100425.44
2023-10-23T16:25:06.926Z,100424.59
2023-10-23T16:27:38.937Z,100424.58
2023-10-23T16:30:13.783Z,100425.39
2023-10-23T16:32:46.337Z,100429.13
2023-10-23T16:35:17.555Z,100431.08
2023-10-23T16:37:49.415Z,100427.68
2023-10-23T16:40:25.677Z,100425.77
2023-10-23T16:42:57.583Z,100429.55
2023-10-23T16:45:30.053Z,100428.81
2023-10-23T16:48:03.974Z,100425.73
2023-10-23T16:50:36.416Z,100424.87
2023-10-23T16:53:08.240Z,100422.14
2023-10-23T16:55:40.045Z,100420.75
2023-10-23T16:58:14.338Z,100422.81
2023-10-23T17:00:46.403Z,100420.83
2023-10-23T17:03:18.420Z,100422.61
2023-10-23T17:05:51.010Z,100423.61
2023-10-23T17:08:22.992Z,100425.61
2023-10-23T17:11:03.895Z,100421.96
2023-10-23T17:13:35.887Z,100426.16
2023-10-23T17:16:08.732Z,100419.75
2023-10-23T17:18:39.610Z,100417.16
2023-10-23T17:21:11.513Z,100413.48
2023-10-23T17:23:44.257Z,100415.21
2023-10-23T17:26:17.545Z,100415.02
2023-10-23T17:28:51.201Z,100412.48
2023-10-23T17:31:23.266Z,100410.08
2023-10-23T17:33:55.196Z,100410.11
2023-10-23T17:36:30.203Z,100413.16
2023-10-23T17:39:02.104Z,100417.45
2023-10-23T17:41:34.210Z,100417.59
2023-10-23T17:44:06.707Z,100418.59
2023-10-23T17:46:38.550Z,100417.04
2023-10-23T17:49:10.617Z,100417.67
2023-10-23T17:51:42.479Z,100410.72
2023-10-23T17:54:16.427Z,100407.33
2023-10-23T17:56:48.668Z,100410.92
2023-10-23T17:59:20.554Z,100409.98
2023-10-23T18:01:52.560Z,100409.51
2023-10-23T18:04:24.987Z,100403.13
2023-10-23T18:06:57.248Z,100403.11
2023-10-23T18:09:29.741Z,100402.05
2023-10-23T18:12:01.975Z,100403.55
2023-10-23T18:14:35.184Z,100400.67
2023-10-23T18:17:08.191Z,100400.09
2023-10-23T18:19:40.207Z,100400.45
2023-10-23T18:22:12.252Z,100401.61
2023-10-23T18:24:44.078Z,100404.33
2023-10-23T18:27:16.591Z,100399.88
2023-10-23T18:29:48.842Z,100395.45
2023-10-23T18:32:20.699Z,100397.90
2023-10-23T18:34:54.392Z,100398.11
2023-10-23T18:37:26.382Z,100387.84
2023-10-23T18:39:58.360Z,100386.83
2023-10-23T18:42:32.582Z,100378.27
2023-10-23T18:45:06.342Z,100378.05
2023-10-23T18:47:39.536Z,100380.27
2023-10-23T18:50:12.626Z,100377.57
2023-10-23T18:52:44.481Z,100378.48
2023-10-23T18:55:16.681Z,100377.81
2023-10-23T18:57:48.653Z,100377.27
2023-10-23T19:00:22.367Z,100378.38
2023-10-23T19:02:54.425Z,100380.05
2023-10-23T19:05:26.725Z,100377.75
2023-10-23T19:07:58.805Z,100376.04
2023-10-23T19:10:31.061Z,100377.25
2023-10-23T19:13:03.197Z,100379.62
2023-10-23T19:15:35.202Z,100375.62
2023-10-23T19:18:07.954Z,100377.09
2023-10-23T19:20:40.167Z,100375.45
2023-10-23T19:23:12.595Z,100374.98
2023-10-23T19:25:51.324Z,100376.49
2023-10-23T19:28:23.865Z,100375.21
2023-10-23T19:30:57.865Z,100381.56
2023-10-23T19:33:30.680Z,100385.67
2023-10-23T19:36:03.918Z,100381.40
2023-10-23T19:38:37.181Z,100379.77
2023-10-23T19:41:15.807Z,100379.20
2023-10-23T19:43:50.283Z,100378.23
2023-10-23T19:46:23.757Z,100382.11
2023-10-23T19:48:56.962Z,100381.84
2023-10-23T19:51:30.700Z,100376.79
2023-10-23T19:54:04.815Z,100378.42
2023-10-23T19:56:39.563Z,100376.92
2023-10-23T19:59:11.936Z,100376.32
2023-10-23T20:01:44.040Z,100380.92
2023-10-23T20:04:16.631Z,100377.63
2023-10-23T20:06:48.983Z,100382.05
2023-10-23T20:09:21.501Z,100386.54
2023-10-23T20:11:53.524Z,100385.05
2023-10-23T20:14:25.446Z,100388.92
2023-10-23T20:16:57.355Z,100389.92
2023-10-23T20:19:29.418Z,100390.76
2023-10-23T20:22:04.294Z,100389.15
2023-10-23T20:24:36.187Z,100388.30
2023-10-23T20:27:08.167Z,100396.01
2023-10-23T20:29:40.282Z,100395.33
2023-10-23T20:32:13.134Z,100387.88
2023-10-23T20:34:44.977Z,100387.77
2023-10-23T20:37:16.840Z,100388.64
2023-10-23T20:39:48.609Z,100386.18
2023-10-23T20:42:20.363Z,100382.27
2023-10-23T20:44:55.018Z,100381.61
2023-10-23T20:47:26.976Z,100376.27
2023-10-23T20:50:00.080Z,100377.44
2023-10-23T20:52:33.860Z,100379.55
2023-10-23T20:55:07.235Z,100377.27
2023-10-23T20:57:39.756Z,100369.39
2023-10-23T21:00:13.869Z,100366.86
2023-10-23T21:02:45.766Z,100367.58
2023-10-23T21:05:18.088Z,100365.70
2023-10-23T21:07:49.908Z,100366.55
2023-10-23T21:10:22.447Z,100362.80
2023-10-23T21:12:54.217Z,100363.29
2023-10-23T21:15:26.094Z,100360.23
2023-10-23T21:17:58.118Z,100357.70
2023-10-23T21:20:30.053Z,100352.14
2023-10-23T21:23:02.527Z,100350.66
2023-10-23T21:25:34.586Z,100351.25
2023-10-23T21:28:06.864Z,100352.09
2023-10-23T21:30:39.001Z,100353.81
2023-10-23T21:33:10.900Z,100352.07
2023-10-23T21:35:42.654Z,100350.36
2023-10-23T21:38:14.944Z,100350.27
2023-10-23T21:40:49.942Z,100344.56
2023-10-23T21:43:21.997Z,100343.44
2023-10-23T21:46:15.079Z,100342.17
2023-10-23T21:48:45.816Z,100336.90
2023-10-23T21:51:17.653Z,100335.91
2023-10-23T21:53:50.401Z,100330.00
2023-10-23T21:56:38.205Z,100327.70
2023-10-23T21:59:19.273Z,100327.35
2023-10-23T22:01:53.909Z,100322.80
2023-10-23T22:04:27.520Z,100323.58
2023-10-23T22:07:00.615Z,100321.55
2023-10-23T22:09:35.051Z,100318.48
2023-10-23T22:12:11.376Z,100319.35
2023-10-23T22:14:43.861Z,100318.16
2023-10-23T22:17:15.783Z,100307.77
2023-10-23T22:19:47.691Z,100303.78
2023-10-23T22:22:19.873Z,100298.45
2023-10-23T22:24:51.638Z,100299.11
2023-10-23T22:27:23.531Z,100295.89
2023-10-23T22:29:55.242Z,100291.63
2023-10-23T22:32:27.222Z,100292.73
2023-10-23T22:34:59.790Z,100295.00
2023-10-23T22:38:00.255Z,100299.35
2023-10-23T22:40:23.578Z,100292.69
2023-10-23T22:42:54.799Z,100281.77
2023-10-23T22:45:26.657Z,100287.17
2023-10-23T22:47:58.497Z,100287.26
2023-10-23T22:50:31.372Z,100291.94
2023-10-23T22:53:04.110Z,100291.30
2023-10-23T22:55:37.629Z,100289.34
2023-10-23T22:58:13.212Z,100292.27
2023-10-23T23:00:46.008Z,100286.66
2023-10-23T23:03:18.843Z,100289.73
2023-10-23T23:05:50.729Z,100284.17
2023-10-23T23:08:26.055Z,100287.96
2023-10-23T23:10:58.883Z,100285.29
2023-10-23T23:13:29.662Z,100288.98
2023-10-23T23:16:05.780Z,100287.77
2023-10-23T23:18:40.787Z,100286.82
2023-10-23T23:21:14.366Z,100287.66
2023-10-23T23:23:46.377Z,100283.47
2023-10-23T23:26:18.714Z,100282.79
2023-10-23T23:28:50.401Z,100285.50
2023-10-23T23:31:22.212Z,100290.44
2023-10-23T23:33:54.928Z,100291.33
2023-10-23T23:36:26.612Z,100287.41
2023-10-23T23:38:58.712Z,100286.72
2023-10-23T23:41:30.872Z,100281.71
2023-10-23T23:44:02.914Z,100283.34
2023-10-23T23:46:34.703Z,100279.16
2023-10-23T23:49:06.691Z,100280.56
2023-10-23T23:51:38.515Z,100276.25
2023-10-23T23:54:10.343Z,100276.28
2023-10-23T23:56:42.711Z,100287.16
2023-10-23T23:59:14.475Z,100286.20
